sensor_id;sensor_type;location;lat;lon;timestamp;pressure;altitude;pressure_sealevel;temperature;humidity
34742;BME280;20968;42.696;23.360;2023-04-26T00:00:35;94325.19;;;12.92;72.72
34742;BME280;20968;42.696;23.360;2023-04-26T00:03:03;94330.25;;;12.83;73.12
34742;BME280;20968;42.696;23.360;2023-04-26T00:05:29;94319.56;;;12.68;73.64
34742;BME280;20968;42.696;23.360;2023-04-26T00:07:55;94320.56;;;12.65;73.15
34742;BME280;20968;42.696;23.360;2023-04-26T00:10:27;94306.25;;;12.67;74.42
34742;BME280;20968;42.696;23.360;2023-04-26T00:12:52;94305.50;;;12.66;72.88
34742;BME280;20968;42.696;23.360;2023-04-26T00:15:17;94304.00;;;12.65;73.35
34742;BME280;20968;42.696;23.360;2023-04-26T00:17:43;94298.47;;;12.65;73.29
34742;BME280;20968;42.696;23.360;2023-04-26T00:20:17;94296.97;;;12.64;74.40
34742;BME280;20968;42.696;23.360;2023-04-26T00:22:47;94281.97;;;12.60;73.08
34742;BME280;20968;42.696;23.360;2023-04-26T00:25:12;94291.72;;;12.61;72.91
34742;BME280;20968;42.696;23.360;2023-04-26T00:27:38;94296.47;;;12.66;73.40
34742;BME280;20968;42.696;23.360;2023-04-26T00:30:09;94297.97;;;12.67;73.42
34742;BME280;20968;42.696;23.360;2023-04-26T00:32:35;94288.66;;;12.70;72.79
34742;BME280;20968;42.696;23.360;2023-04-26T00:35:04;94287.69;;;12.62;73.05
34742;BME280;20968;42.696;23.360;2023-04-26T00:37:31;94273.66;;;12.60;73.04
34742;BME280;20968;42.696;23.360;2023-04-26T00:39:57;94277.13;;;12.66;73.32
34742;BME280;20968;42.696;23.360;2023-04-26T00:42:22;94276.66;;;12.62;72.96
34742;BME280;20968;42.696;23.360;2023-04-26T00:44:47;94278.91;;;12.63;72.98
34742;BME280;20968;42.696;23.360;2023-04-26T00:47:14;94279.66;;;12.64;73.47
34742;BME280;20968;42.696;23.360;2023-04-26T00:49:40;94276.19;;;12.58;73.25
34742;BME280;20968;42.696;23.360;2023-04-26T00:52:05;94284.19;;;12.61;72.47
34742;BME280;20968;42.696;23.360;2023-04-26T00:54:31;94286.97;;;12.61;72.89
34742;BME280;20968;42.696;23.360;2023-04-26T00:57:01;94292.94;;;12.65;72.06
34742;BME280;20968;42.696;23.360;2023-04-26T00:59:28;94285.19;;;12.64;72.68
34742;BME280;20968;42.696;23.360;2023-04-26T01:02:06;94279.94;;;12.60;72.92
34742;BME280;20968;42.696;23.360;2023-04-26T01:04:31;94291.19;;;12.68;72.59
34742;BME280;20968;42.696;23.360;2023-04-26T01:07:00;94280.19;;;12.62;72.97
34742;BME280;20968;42.696;23.360;2023-04-26T01:09:28;94292.66;;;12.69;72.68
34742;BME280;20968;42.696;23.360;2023-04-26T01:11:58;94286.44;;;12.63;73.04
34742;BME280;20968;42.696;23.360;2023-04-26T01:14:26;94284.72;;;12.60;72.70
34742;BME280;20968;42.696;23.360;2023-04-26T01:16:59;94287.66;;;12.67;72.55
34742;BME280;20968;42.696;23.360;2023-04-26T01:19:26;94296.25;;;12.58;72.50
34742;BME280;20968;42.696;23.360;2023-04-26T01:21:53;94305.84;;;12.52;72.65
34742;BME280;20968;42.696;23.360;2023-04-26T01:24:18;94288.34;;;12.44;73.29
34742;BME280;20968;42.696;23.360;2023-04-26T01:26:44;94276.75;;;12.51;72.60
34742;BME280;20968;42.696;23.360;2023-04-26T01:29:16;94260.44;;;12.47;73.09
34742;BME280;20968;42.696;23.360;2023-04-26T01:31:42;94267.66;;;12.56;72.79
34742;BME280;20968;42.696;23.360;2023-04-26T01:34:08;94272.19;;;12.53;72.39
34742;BME280;20968;42.696;23.360;2023-04-26T01:36:37;94270.72;;;12.47;72.78
34742;BME280;20968;42.696;23.360;2023-04-26T01:39:05;94285.06;;;12.45;73.22
34742;BME280;20968;42.696;23.360;2023-04-26T01:41:32;94277.03;;;12.42;72.57
34742;BME280;20968;42.696;23.360;2023-04-26T01:44:01;94265.50;;;12.38;72.68
34742;BME280;20968;42.696;23.360;2023-04-26T01:46:31;94275.41;;;12.23;73.23
34742;BME280;20968;42.696;23.360;2023-04-26T01:49:00;94289.94;;;12.23;74.16
34742;BME280;20968;42.696;23.360;2023-04-26T01:51:28;94291.72;;;12.21;73.94
34742;BME280;20968;42.696;23.360;2023-04-26T01:53:53;94292.72;;;12.23;74.13
34742;BME280;20968;42.696;23.360;2023-04-26T01:56:19;94287.94;;;12.24;73.67
34742;BME280;20968;42.696;23.360;2023-04-26T01:58:45;94287.19;;;12.23;74.57
34742;BME280;20968;42.696;23.360;2023-04-26T02:01:10;94283.16;;;12.24;73.74
34742;BME280;20968;42.696;23.360;2023-04-26T02:03:36;94286.16;;;12.32;74.15
34742;BME280;20968;42.696;23.360;2023-04-26T02:06:06;94280.09;;;12.33;74.33
34742;BME280;20968;42.696;23.360;2023-04-26T02:08:31;94274.34;;;12.31;73.28
34742;BME280;20968;42.696;23.360;2023-04-26T02:10:57;94266.06;;;12.31;73.70
34742;BME280;20968;42.696;23.360;2023-04-26T02:13:22;94272.06;;;12.35;73.35
34742;BME280;20968;42.696;23.360;2023-04-26T02:15:57;94274.34;;;12.31;73.73
34742;BME280;20968;42.696;23.360;2023-04-26T02:18:23;94271.38;;;12.24;73.76
34742;BME280;20968;42.696;23.360;2023-04-26T02:20:49;94256.13;;;12.17;73.68
34742;BME280;20968;42.696;23.360;2023-04-26T02:23:14;94257.63;;;12.18;74.05
34742;BME280;20968;42.696;23.360;2023-04-26T02:25:40;94261.88;;;12.19;73.89
34742;BME280;20968;42.696;23.360;2023-04-26T02:28:06;94268.13;;;12.25;73.74
34742;BME280;20968;42.696;23.360;2023-04-26T02:30:43;94257.88;;;12.20;73.71
34742;BME280;20968;42.696;23.360;2023-04-26T02:33:14;94263.34;;;12.26;72.84
34742;BME280;20968;42.696;23.360;2023-04-26T02:35:44;94264.84;;;12.27;73.34
34742;BME280;20968;42.696;23.360;2023-04-26T02:38:09;94265.63;;;12.22;73.23
34742;BME280;20968;42.696;23.360;2023-04-26T02:40:35;94269.44;;;12.19;74.02
34742;BME280;20968;42.696;23.360;2023-04-26T02:43:00;94273.94;;;12.16;74.18
34742;BME280;20968;42.696;23.360;2023-04-26T02:45:27;94266.44;;;12.11;73.15
34742;BME280;20968;42.696;23.360;2023-04-26T02:47:56;94278.44;;;12.19;73.64
34742;BME280;20968;42.696;23.360;2023-04-26T02:50:22;94276.91;;;12.24;73.33
34742;BME280;20968;42.696;23.360;2023-04-26T02:52:53;94269.88;;;12.28;73.19
34742;BME280;20968;42.696;23.360;2023-04-26T02:55:19;94256.34;;;12.25;73.22
34742;BME280;20968;42.696;23.360;2023-04-26T02:57:46;94258.88;;;12.17;74.02
34742;BME280;20968;42.696;23.360;2023-04-26T03:00:12;94247.66;;;12.10;73.41
34742;BME280;20968;42.696;23.360;2023-04-26T03:02:39;94250.34;;;12.15;72.84
34742;BME280;20968;42.696;23.360;2023-04-26T03:05:13;94250.91;;;12.08;73.18
34742;BME280;20968;42.696;23.360;2023-04-26T03:07:39;94258.63;;;12.15;72.73
34742;BME280;20968;42.696;23.360;2023-04-26T03:10:04;94248.09;;;12.14;73.08
34742;BME280;20968;42.696;23.360;2023-04-26T03:12:30;94264.13;;;12.21;73.04
34742;BME280;20968;42.696;23.360;2023-04-26T03:14:55;94254.34;;;12.20;73.70
34742;BME280;20968;42.696;23.360;2023-04-26T03:17:23;94258.88;;;12.17;73.47
34742;BME280;20968;42.696;23.360;2023-04-26T03:19:52;94255.88;;;12.15;73.09
34742;BME280;20968;42.696;23.360;2023-04-26T03:22:19;94244.63;;;12.13;72.33
34742;BME280;20968;42.696;23.360;2023-04-26T03:24:46;94250.84;;;12.19;72.23
34742;BME280;20968;42.696;23.360;2023-04-26T03:27:12;94253.31;;;12.23;72.70
34742;BME280;20968;42.696;23.360;2023-04-26T03:29:40;94240.06;;;12.16;72.71
34742;BME280;20968;42.696;23.360;2023-04-26T03:32:12;94230.28;;;12.15;72.61
34742;BME280;20968;42.696;23.360;2023-04-26T03:34:46;94249.09;;;12.16;71.94
34742;BME280;20968;42.696;23.360;2023-04-26T03:37:15;94244.88;;;12.10;72.29
34742;BME280;20968;42.696;23.360;2023-04-26T03:39:46;94254.41;;;12.14;72.80
34742;BME280;20968;42.696;23.360;2023-04-26T03:42:14;94245.09;;;12.12;71.81
34742;BME280;20968;42.696;23.360;2023-04-26T03:44:40;94246.81;;;12.20;72.15
34742;BME280;20968;42.696;23.360;2023-04-26T03:47:05;94250.56;;;12.23;71.73
34742;BME280;20968;42.696;23.360;2023-04-26T03:49:31;94254.16;;;12.07;71.72
34742;BME280;20968;42.696;23.360;2023-04-26T03:51:58;94255.44;;;12.06;71.30
34742;BME280;20968;42.696;23.360;2023-04-26T03:54:24;94254.69;;;12.05;71.02
34742;BME280;20968;42.696;23.360;2023-04-26T03:56:54;94267.97;;;12.07;72.30
34742;BME280;20968;42.696;23.360;2023-04-26T03:59:20;94260.25;;;11.94;72.16
34742;BME280;20968;42.696;23.360;2023-04-26T04:01:45;94266.47;;;12.00;72.41
34742;BME280;20968;42.696;23.360;2023-04-26T04:04:13;94275.00;;;12.02;72.26
34742;BME280;20968;42.696;23.360;2023-04-26T04:06:43;94281.84;;;11.96;73.22
34742;BME280;20968;42.696;23.360;2023-04-26T04:09:12;94277.06;;;11.96;72.72
34742;BME280;20968;42.696;23.360;2023-04-26T04:11:37;94270.03;;;11.95;73.04
34742;BME280;20968;42.696;23.360;2023-04-26T04:14:02;94267.78;;;11.94;73.13
34742;BME280;20968;42.696;23.360;2023-04-26T04:16:31;94279.00;;;12.07;75.18
34742;BME280;20968;42.696;23.360;2023-04-26T04:18:56;94276.13;;;12.29;80.08
34742;BME280;20968;42.696;23.360;2023-04-26T04:21:22;94282.38;;;12.69;80.11
34742;BME280;20968;42.696;23.360;2023-04-26T04:23:48;94288.06;;;13.17;79.21
34742;BME280;20968;42.696;23.360;2023-04-26T04:26:14;94281.81;;;13.35;74.69
34742;BME280;20968;42.696;23.360;2023-04-26T04:28:40;94295.38;;;13.62;74.71
34742;BME280;20968;42.696;23.360;2023-04-26T04:31:06;94300.41;;;14.06;72.27
34742;BME280;20968;42.696;23.360;2023-04-26T04:33:35;94289.06;;;14.28;72.03
34742;BME280;20968;42.696;23.360;2023-04-26T04:36:01;94295.50;;;14.54;71.55
34742;BME280;20968;42.696;23.360;2023-04-26T04:38:27;94296.97;;;14.74;70.60
34742;BME280;20968;42.696;23.360;2023-04-26T04:40:53;94299.88;;;14.99;69.62
34742;BME280;20968;42.696;23.360;2023-04-26T04:43:19;94305.88;;;15.03;67.49
34742;BME280;20968;42.696;23.360;2023-04-26T04:45:45;94302.81;;;14.88;65.17
34742;BME280;20968;42.696;23.360;2023-04-26T04:48:15;94317.00;;;14.67;64.33
34742;BME280;20968;42.696;23.360;2023-04-26T04:50:42;94299.72;;;14.42;64.08
34742;BME280;20968;42.696;23.360;2023-04-26T04:53:08;94293.88;;;14.27;65.28
34742;BME280;20968;42.696;23.360;2023-04-26T04:55:34;94302.09;;;14.14;65.09
34742;BME280;20968;42.696;23.360;2023-04-26T04:58:02;94304.28;;;13.98;65.60
34742;BME280;20968;42.696;23.360;2023-04-26T05:00:29;94300.50;;;13.77;66.79
34742;BME280;20968;42.696;23.360;2023-04-26T05:02:54;94298.25;;;13.75;66.28
34742;BME280;20968;42.696;23.360;2023-04-26T05:05:21;94309.69;;;13.66;66.04
34742;BME280;20968;42.696;23.360;2023-04-26T05:07:46;94305.19;;;13.63;67.05
34742;BME280;20968;42.696;23.360;2023-04-26T05:10:12;94304.44;;;13.63;67.33
34742;BME280;20968;42.696;23.360;2023-04-26T05:12:37;94297.41;;;13.62;67.43
34742;BME280;20968;42.696;23.360;2023-04-26T05:15:03;94306.91;;;13.66;67.48
34742;BME280;20968;42.696;23.360;2023-04-26T05:17:29;94306.63;;;13.70;67.31
34742;BME280;20968;42.696;23.360;2023-04-26T05:19:56;94301.78;;;13.52;68.68
34742;BME280;20968;42.696;23.360;2023-04-26T05:22:22;94299.25;;;13.54;67.95
34742;BME280;20968;42.696;23.360;2023-04-26T05:24:47;94310.53;;;13.56;67.89
34742;BME280;20968;42.696;23.360;2023-04-26T05:27:13;94314.28;;;13.58;68.50
34742;BME280;20968;42.696;23.360;2023-04-26T05:29:38;94323.53;;;13.66;67.99
34742;BME280;20968;42.696;23.360;2023-04-26T05:32:04;94317.22;;;13.66;67.59
34742;BME280;20968;42.696;23.360;2023-04-26T05:34:30;94322.03;;;13.65;65.88
34742;BME280;20968;42.696;23.360;2023-04-26T05:36:56;94327.25;;;13.69;66.59
34742;BME280;20968;42.696;23.360;2023-04-26T05:39:24;94316.19;;;13.69;67.24
34742;BME280;20968;42.696;23.360;2023-04-26T05:41:50;94319.13;;;13.76;67.96
34742;BME280;20968;42.696;23.360;2023-04-26T05:44:15;94318.72;;;13.67;68.61
34742;BME280;20968;42.696;23.360;2023-04-26T05:46:41;94323.69;;;13.74;68.02
34742;BME280;20968;42.696;23.360;2023-04-26T05:49:06;94324.25;;;13.67;67.51
34742;BME280;20968;42.696;23.360;2023-04-26T05:51:31;94328.09;;;13.82;67.14
34742;BME280;20968;42.696;23.360;2023-04-26T05:53:57;94330.47;;;13.97;67.78
34742;BME280;20968;42.696;23.360;2023-04-26T05:56:23;94329.88;;;14.03;67.01
34742;BME280;20968;42.696;23.360;2023-04-26T05:58:50;94321.03;;;14.05;66.43
34742;BME280;20968;42.696;23.360;2023-04-26T06:01:15;94327.75;;;13.91;66.14
34742;BME280;20968;42.696;23.360;2023-04-26T06:03:41;94328.53;;;13.92;66.08
34742;BME280;20968;42.696;23.360;2023-04-26T06:06:06;94334.25;;;13.94;66.51
34742;BME280;20968;42.696;23.360;2023-04-26T06:08:33;94329.94;;;13.98;67.00
34742;BME280;20968;42.696;23.360;2023-04-26T06:10:58;94324.69;;;13.95;67.13
34742;BME280;20968;42.696;23.360;2023-04-26T06:13:24;94332.88;;;14.05;67.54
34742;BME280;20968;42.696;23.360;2023-04-26T06:15:49;94336.34;;;14.11;66.86
34742;BME280;20968;42.696;23.360;2023-04-26T06:18:14;94338.91;;;14.28;66.32
34742;BME280;20968;42.696;23.360;2023-04-26T06:20:40;94337.66;;;14.47;66.98
34742;BME280;20968;42.696;23.360;2023-04-26T06:23:06;94333.53;;;14.72;66.15
34742;BME280;20968;42.696;23.360;2023-04-26T06:25:31;94339.09;;;14.54;64.45
34742;BME280;20968;42.696;23.360;2023-04-26T06:27:58;94328.84;;;14.49;64.85
34742;BME280;20968;42.696;23.360;2023-04-26T06:30:23;94325.59;;;14.45;65.17
34742;BME280;20968;42.696;23.360;2023-04-26T06:32:49;94331.50;;;14.36;65.60
34742;BME280;20968;42.696;23.360;2023-04-26T06:35:14;94334.00;;;14.39;65.73
34742;BME280;20968;42.696;23.360;2023-04-26T06:37:40;94335.19;;;14.44;66.71
34742;BME280;20968;42.696;23.360;2023-04-26T06:40:06;94326.81;;;14.49;66.68
34742;BME280;20968;42.696;23.360;2023-04-26T06:42:33;94325.31;;;14.67;66.14
34742;BME280;20968;42.696;23.360;2023-04-26T06:44:59;94324.56;;;14.66;65.36
34742;BME280;20968;42.696;23.360;2023-04-26T06:47:24;94328.75;;;14.54;64.89
34742;BME280;20968;42.696;23.360;2023-04-26T06:49:50;94326.97;;;14.57;62.68
34742;BME280;20968;42.696;23.360;2023-04-26T06:52:15;94326.66;;;14.23;60.38
34742;BME280;20968;42.696;23.360;2023-04-26T06:54:41;94339.81;;;14.17;61.93
34742;BME280;20968;42.696;23.360;2023-04-26T06:57:06;94329.59;;;13.83;59.91
34742;BME280;20968;42.696;23.360;2023-04-26T06:59:45;94332.59;;;13.61;61.85
34742;BME280;20968;42.696;23.360;2023-04-26T07:02:10;94328.97;;;13.48;62.70
34742;BME280;20968;42.696;23.360;2023-04-26T07:04:36;94342.06;;;13.47;62.38
34742;BME280;20968;42.696;23.360;2023-04-26T07:07:01;94334.09;;;13.62;62.76
34742;BME280;20968;42.696;23.360;2023-04-26T07:09:27;94331.06;;;13.66;61.96
34742;BME280;20968;42.696;23.360;2023-04-26T07:11:52;94333.53;;;13.69;62.39
34742;BME280;20968;42.696;23.360;2023-04-26T07:14:18;94335.84;;;13.65;62.29
34742;BME280;20968;42.696;23.360;2023-04-26T07:16:43;94345.13;;;13.68;62.02
34742;BME280;20968;42.696;23.360;2023-04-26T07:19:08;94338.09;;;13.67;62.50
34742;BME280;20968;42.696;23.360;2023-04-26T07:21:35;94340.56;;;13.70;63.30
34742;BME280;20968;42.696;23.360;2023-04-26T07:24:01;94336.97;;;13.75;63.30
34742;BME280;20968;42.696;23.360;2023-04-26T07:26:26;94356.63;;;13.72;62.12
34742;BME280;20968;42.696;23.360;2023-04-26T07:28:52;94350.19;;;13.40;62.31
34742;BME280;20968;42.696;23.360;2023-04-26T07:31:18;94337.91;;;13.35;62.52
34742;BME280;20968;42.696;23.360;2023-04-26T07:33:45;94339.16;;;13.34;62.91
34742;BME280;20968;42.696;23.360;2023-04-26T07:36:10;94362.72;;;13.41;60.79
34742;BME280;20968;42.696;23.360;2023-04-26T07:38:36;94350.19;;;13.40;61.09
34742;BME280;20968;42.696;23.360;2023-04-26T07:41:01;94368.31;;;13.59;61.88
34742;BME280;20968;42.696;23.360;2023-04-26T07:43:29;94354.50;;;13.59;59.91
34742;BME280;20968;42.696;23.360;2023-04-26T07:46:00;94365.31;;;13.63;60.49
34742;BME280;20968;42.696;23.360;2023-04-26T07:48:33;94367.94;;;13.74;60.68
34742;BME280;20968;42.696;23.360;2023-04-26T07:51:12;94355.13;;;13.71;60.55
34742;BME280;20968;42.696;23.360;2023-04-26T07:53:42;94361.84;;;13.81;59.91
34742;BME280;20968;42.696;23.360;2023-04-26T07:56:08;94365.13;;;13.79;60.12
34742;BME280;20968;42.696;23.360;2023-04-26T07:58:34;94363.56;;;13.84;58.37
34742;BME280;20968;42.696;23.360;2023-04-26T08:01:00;94354.63;;;13.72;57.63
34742;BME280;20968;42.696;23.360;2023-04-26T08:03:26;94359.56;;;13.55;58.03
34742;BME280;20968;42.696;23.360;2023-04-26T08:05:53;94363.28;;;13.63;58.51
34742;BME280;20968;42.696;23.360;2023-04-26T08:08:22;94357.75;;;13.63;57.71
34742;BME280;20968;42.696;23.360;2023-04-26T08:10:49;94366.56;;;13.62;57.65
34742;BME280;20968;42.696;23.360;2023-04-26T08:13:14;94356.56;;;13.53;58.08
34742;BME280;20968;42.696;23.360;2023-04-26T08:15:41;94373.31;;;13.66;58.97
34742;BME280;20968;42.696;23.360;2023-04-26T08:18:07;94366.69;;;13.75;58.94
34742;BME280;20968;42.696;23.360;2023-04-26T08:20:33;94364.06;;;13.82;57.83
34742;BME280;20968;42.696;23.360;2023-04-26T08:23:01;94355.56;;;13.80;56.97
34742;BME280;20968;42.696;23.360;2023-04-26T08:25:29;94367.72;;;13.96;57.65
34742;BME280;20968;42.696;23.360;2023-04-26T08:27:54;94358.09;;;13.78;57.61
34742;BME280;20968;42.696;23.360;2023-04-26T08:30:20;94348.19;;;13.88;58.06
34742;BME280;20968;42.696;23.360;2023-04-26T08:32:46;94368.50;;;14.20;57.42
34742;BME280;20968;42.696;23.360;2023-04-26T08:35:12;94363.00;;;14.14;56.84
34742;BME280;20968;42.696;23.360;2023-04-26T08:37:39;94360.28;;;14.09;56.93
34742;BME280;20968;42.696;23.360;2023-04-26T08:40:05;94358.78;;;14.08;57.09
34742;BME280;20968;42.696;23.360;2023-04-26T08:42:40;94357.03;;;14.05;56.69
34742;BME280;20968;42.696;23.360;2023-04-26T08:45:09;94350.44;;;14.13;56.95
34742;BME280;20968;42.696;23.360;2023-04-26T08:47:56;94364.66;;;14.23;56.67
34742;BME280;20968;42.696;23.360;2023-04-26T08:50:23;94353.22;;;14.13;56.53
34742;BME280;20968;42.696;23.360;2023-04-26T08:52:50;94365.25;;;14.16;56.97
34742;BME280;20968;42.696;23.360;2023-04-26T08:55:17;94360.78;;;14.31;56.38
34742;BME280;20968;42.696;23.360;2023-04-26T08:57:45;94350.22;;;14.06;55.61
34742;BME280;20968;42.696;23.360;2023-04-26T09:00:12;94381.56;;;14.19;55.71
34742;BME280;20968;42.696;23.360;2023-04-26T09:02:40;94373.22;;;14.25;55.83
34742;BME280;20968;42.696;23.360;2023-04-26T09:05:09;94377.06;;;14.16;55.42
34742;BME280;20968;42.696;23.360;2023-04-26T09:07:55;94384.81;;;14.23;54.41
34742;BME280;20968;42.696;23.360;2023-04-26T09:10:21;94373.06;;;14.36;55.19
34742;BME280;20968;42.696;23.360;2023-04-26T09:12:54;94374.81;;;14.57;55.00
34742;BME280;20968;42.696;23.360;2023-04-26T09:15:21;94362.53;;;14.53;54.43
34742;BME280;20968;42.696;23.360;2023-04-26T09:17:47;94367.47;;;14.78;54.58
34742;BME280;20968;42.696;23.360;2023-04-26T09:22:42;94371.69;;;14.66;54.03
34742;BME280;20968;42.696;23.360;2023-04-26T09:25:19;94364.94;;;14.62;53.30
34742;BME280;20968;42.696;23.360;2023-04-26T09:27:50;94363.00;;;14.75;53.37
34742;BME280;20968;42.696;23.360;2023-04-26T09:30:17;94375.72;;;14.83;53.16
34742;BME280;20968;42.696;23.360;2023-04-26T09:33:02;94372.50;;;14.98;52.05
34742;BME280;20968;42.696;23.360;2023-04-26T09:35:38;94379.91;;;15.08;52.18
34742;BME280;20968;42.696;23.360;2023-04-26T09:38:09;94368.97;;;14.97;52.13
34742;BME280;20968;42.696;23.360;2023-04-26T09:40:45;94374.00;;;14.99;51.94
34742;BME280;20968;42.696;23.360;2023-04-26T09:43:18;94365.88;;;15.01;51.91
34742;BME280;20968;42.696;23.360;2023-04-26T09:45:47;94367.03;;;14.92;50.78
34742;BME280;20968;42.696;23.360;2023-04-26T09:48:33;94370.84;;;14.89;51.18
34742;BME280;20968;42.696;23.360;2023-04-26T09:53:32;94365.16;;;15.00;52.46
34742;BME280;20968;42.696;23.360;2023-04-26T09:56:17;94376.38;;;15.08;51.09
34742;BME280;20968;42.696;23.360;2023-04-26T10:01:14;94364.47;;;14.94;50.65
34742;BME280;20968;42.696;23.360;2023-04-26T10:03:40;94361.47;;;14.92;50.71
34742;BME280;20968;42.696;23.360;2023-04-26T10:06:07;94362.44;;;14.95;50.07
34742;BME280;20968;42.696;23.360;2023-04-26T10:08:35;94362.13;;;14.98;49.49
34742;BME280;20968;42.696;23.360;2023-04-26T10:11:05;94362.44;;;14.95;48.77
34742;BME280;20968;42.696;23.360;2023-04-26T10:13:37;94373.97;;;15.17;49.19
34742;BME280;20968;42.696;23.360;2023-04-26T10:16:04;94375.22;;;15.35;46.68
34742;BME280;20968;42.696;23.360;2023-04-26T10:18:31;94362.00;;;15.41;47.03
34742;BME280;20968;42.696;23.360;2023-04-26T10:21:01;94364.63;;;15.64;46.27
34742;BME280;20968;42.696;23.360;2023-04-26T10:23:30;94366.84;;;15.53;45.64
34742;BME280;20968;42.696;23.360;2023-04-26T10:25:56;94364.38;;;15.37;45.95
34742;BME280;20968;42.696;23.360;2023-04-26T10:31:17;94354.56;;;15.17;46.84
34742;BME280;20968;42.696;23.360;2023-04-26T10:33:42;94340.22;;;15.32;47.15
34742;BME280;20968;42.696;23.360;2023-04-26T10:36:10;94358.81;;;15.37;45.19
34742;BME280;20968;42.696;23.360;2023-04-26T10:38:38;94359.44;;;15.30;45.54
34742;BME280;20968;42.696;23.360;2023-04-26T10:41:34;94345.16;;;15.20;45.44
34742;BME280;20968;42.696;23.360;2023-04-26T10:44:36;94353.72;;;15.22;45.02
34742;BME280;20968;42.696;23.360;2023-04-26T10:47:05;94344.56;;;15.27;45.34
34742;BME280;20968;42.696;23.360;2023-04-26T10:49:51;94349.97;;;15.20;45.25
34742;BME280;20968;42.696;23.360;2023-04-26T10:52:18;94346.22;;;15.17;44.98
34742;BME280;20968;42.696;23.360;2023-04-26T10:54:58;94347.44;;;15.22;43.64
34742;BME280;20968;42.696;23.360;2023-04-26T10:57:46;94346.59;;;15.27;44.23
34742;BME280;20968;42.696;23.360;2023-04-26T11:00:24;94349.69;;;15.23;44.36
34742;BME280;20968;42.696;23.360;2023-04-26T11:05:40;94354.78;;;15.51;44.11
34742;BME280;20968;42.696;23.360;2023-04-26T11:08:25;94338.97;;;15.46;43.75
34742;BME280;20968;42.696;23.360;2023-04-26T11:11:16;94343.41;;;15.67;43.66
34742;BME280;20968;42.696;23.360;2023-04-26T11:13:46;94348.44;;;15.81;42.81
34742;BME280;20968;42.696;23.360;2023-04-26T11:16:12;94349.41;;;15.71;44.29
34742;BME280;20968;42.696;23.360;2023-04-26T11:18:43;94345.75;;;15.76;43.93
34742;BME280;20968;42.696;23.360;2023-04-26T11:21:12;94330.38;;;15.75;43.10
34742;BME280;20968;42.696;23.360;2023-04-26T11:23:54;94348.22;;;15.92;43.07
34742;BME280;20968;42.696;23.360;2023-04-26T11:26:21;94349.22;;;16.08;42.99
34742;BME280;20968;42.696;23.360;2023-04-26T11:28:47;94343.97;;;16.17;42.97
34742;BME280;20968;42.696;23.360;2023-04-26T11:31:13;94340.66;;;16.19;42.06
34742;BME280;20968;42.696;23.360;2023-04-26T11:33:43;94349.22;;;16.34;41.96
34742;BME280;20968;42.696;23.360;2023-04-26T11:36:10;94341.09;;;16.23;41.56
34742;BME280;20968;42.696;23.360;2023-04-26T11:38:36;94347.06;;;16.27;42.08
34742;BME280;20968;42.696;23.360;2023-04-26T11:41:02;94347.47;;;16.18;42.76
34742;BME280;20968;42.696;23.360;2023-04-26T11:43:35;94331.47;;;16.11;43.61
34742;BME280;20968;42.696;23.360;2023-04-26T11:46:02;94339.59;;;16.47;42.25
34742;BME280;20968;42.696;23.360;2023-04-26T11:48:29;94342.09;;;16.71;42.00
34742;BME280;20968;42.696;23.360;2023-04-26T11:51:01;94327.19;;;16.48;41.73
34742;BME280;20968;42.696;23.360;2023-04-26T11:53:38;94336.53;;;16.84;41.66
34742;BME280;20968;42.696;23.360;2023-04-26T11:58:49;94333.47;;;16.95;41.23
34742;BME280;20968;42.696;23.360;2023-04-26T12:03:54;94327.69;;;16.73;42.07
34742;BME280;20968;42.696;23.360;2023-04-26T12:06:30;94348.66;;;16.74;41.70
34742;BME280;20968;42.696;23.360;2023-04-26T12:09:00;94347.06;;;16.52;42.07
34742;BME280;20968;42.696;23.360;2023-04-26T12:11:27;94334.88;;;16.42;42.00
34742;BME280;20968;42.696;23.360;2023-04-26T12:13:56;94345.47;;;16.44;42.00
34742;BME280;20968;42.696;23.360;2023-04-26T12:16:22;94337.25;;;16.38;41.80
34742;BME280;20968;42.696;23.360;2023-04-26T12:18:51;94335.66;;;16.43;42.67
34742;BME280;20968;42.696;23.360;2023-04-26T12:21:20;94321.44;;;16.34;42.72
34742;BME280;20968;42.696;23.360;2023-04-26T12:23:49;94330.50;;;16.47;42.33
34742;BME280;20968;42.696;23.360;2023-04-26T12:26:15;94337.00;;;16.49;42.29
34742;BME280;20968;42.696;23.360;2023-04-26T12:28:48;94337.69;;;16.30;41.51
34742;BME280;20968;42.696;23.360;2023-04-26T12:31:13;94330.31;;;16.32;41.91
34742;BME280;20968;42.696;23.360;2023-04-26T12:33:39;94321.75;;;16.30;43.04
34742;BME280;20968;42.696;23.360;2023-04-26T12:36:10;94342.38;;;16.22;41.87
34742;BME280;20968;42.696;23.360;2023-04-26T12:38:37;94335.09;;;15.93;41.83
34742;BME280;20968;42.696;23.360;2023-04-26T12:41:03;94338.63;;;15.80;42.06
34742;BME280;20968;42.696;23.360;2023-04-26T12:43:29;94325.38;;;15.73;42.38
34742;BME280;20968;42.696;23.360;2023-04-26T12:45:56;94321.31;;;15.74;43.26
34742;BME280;20968;42.696;23.360;2023-04-26T12:48:21;94316.41;;;15.67;43.31
34742;BME280;20968;42.696;23.360;2023-04-26T12:50:47;94328.78;;;15.66;43.59
34742;BME280;20968;42.696;23.360;2023-04-26T12:53:12;94324.56;;;15.47;44.00
34742;BME280;20968;42.696;23.360;2023-04-26T12:55:38;94335.69;;;15.47;44.58
34742;BME280;20968;42.696;23.360;2023-04-26T12:58:03;94330.94;;;15.29;44.66
34742;BME280;20968;42.696;23.360;2023-04-26T13:00:29;94326.13;;;15.11;43.93
34742;BME280;20968;42.696;23.360;2023-04-26T13:02:54;94334.69;;;15.13;43.63
34742;BME280;20968;42.696;23.360;2023-04-26T13:05:22;94325.47;;;15.05;44.44
34742;BME280;20968;42.696;23.360;2023-04-26T13:07:50;94343.09;;;15.08;44.69
34742;BME280;20968;42.696;23.360;2023-04-26T13:10:16;94332.75;;;15.08;44.97
34742;BME280;20968;42.696;23.360;2023-04-26T13:12:41;94337.75;;;15.10;45.64